sensor_id;sensor_type;location;lat;lon;timestamp;P1;durP1;ratioP1;P2;durP2;ratioP2
25073;SDS011;13066;52.042;5.648;2023-06-10T00:00:01;11.82;;;6.38;;
25073;SDS011;13066;52.042;5.648;2023-06-10T00:02:37;10.77;;;6.03;;
25073;SDS011;13066;52.042;5.648;2023-06-10T00:05:06;8.70;;;6.07;;
25073;SDS011;13066;52.042;5.648;2023-06-10T00:07:37;9.48;;;5.57;;
25073;SDS011;13066;52.042;5.648;2023-06-10T00:10:05;13.77;;;6.28;;
25073;SDS011;13066;52.042;5.648;2023-06-10T00:12:36;7.47;;;5.68;;
25073;SDS011;13066;52.042;5.648;2023-06-10T00:15:06;10.70;;;6.00;;
25073;SDS011;13066;52.042;5.648;2023-06-10T00:17:35;8.90;;;5.80;;
25073;SDS011;13066;52.042;5.648;2023-06-10T00:20:07;9.55;;;5.50;;
25073;SDS011;13066;52.042;5.648;2023-06-10T00:22:39;12.27;;;6.15;;
25073;SDS011;13066;52.042;5.648;2023-06-10T00:25:09;11.32;;;6.18;;
25073;SDS011;13066;52.042;5.648;2023-06-10T00:27:39;8.18;;;5.93;;
25073;SDS011;13066;52.042;5.648;2023-06-10T00:30:07;10.00;;;5.93;;
25073;SDS011;13066;52.042;5.648;2023-06-10T00:32:39;10.77;;;6.32;;
25073;SDS011;13066;52.042;5.648;2023-06-10T00:35:07;11.13;;;5.78;;
25073;SDS011;13066;52.042;5.648;2023-06-10T00:37:36;9.13;;;5.25;;
25073;SDS011;13066;52.042;5.648;2023-06-10T00:40:04;11.82;;;5.35;;
25073;SDS011;13066;52.042;5.648;2023-06-10T00:42:35;7.72;;;5.57;;
25073;SDS011;13066;52.042;5.648;2023-06-10T00:45:05;10.20;;;5.15;;
25073;SDS011;13066;52.042;5.648;2023-06-10T00:47:36;7.90;;;5.38;;
25073;SDS011;13066;52.042;5.648;2023-06-10T00:50:04;9.68;;;5.20;;
25073;SDS011;13066;52.042;5.648;2023-06-10T00:52:34;9.52;;;5.93;;
25073;SDS011;13066;52.042;5.648;2023-06-10T00:55:03;8.68;;;5.57;;
25073;SDS011;13066;52.042;5.648;2023-06-10T00:57:32;13.02;;;5.15;;
25073;SDS011;13066;52.042;5.648;2023-06-10T01:00:00;10.00;;;5.05;;
25073;SDS011;13066;52.042;5.648;2023-06-10T01:02:35;7.78;;;5.50;;
25073;SDS011;13066;52.042;5.648;2023-06-10T01:05:03;8.65;;;5.75;;
25073;SDS011;13066;52.042;5.648;2023-06-10T01:07:34;11.82;;;5.50;;
25073;SDS011;13066;52.042;5.648;2023-06-10T01:10:05;12.25;;;5.57;;
25073;SDS011;13066;52.042;5.648;2023-06-10T01:12:39;10.30;;;6.22;;
25073;SDS011;13066;52.042;5.648;2023-06-10T01:15:09;7.53;;;5.40;;
25073;SDS011;13066;52.042;5.648;2023-06-10T01:20:25;11.02;;;5.40;;
25073;SDS011;13066;52.042;5.648;2023-06-10T01:22:57;12.15;;;5.30;;
25073;SDS011;13066;52.042;5.648;2023-06-10T01:25:26;9.55;;;4.95;;
25073;SDS011;13066;52.042;5.648;2023-06-10T01:27:58;13.23;;;5.85;;
25073;SDS011;13066;52.042;5.648;2023-06-10T01:30:32;9.05;;;5.22;;
25073;SDS011;13066;52.042;5.648;2023-06-10T01:33:06;7.03;;;5.10;;
25073;SDS011;13066;52.042;5.648;2023-06-10T01:35:35;10.07;;;5.45;;
25073;SDS011;13066;52.042;5.648;2023-06-10T01:38:06;8.65;;;5.68;;
25073;SDS011;13066;52.042;5.648;2023-06-10T01:40:34;10.48;;;5.03;;
25073;SDS011;13066;52.042;5.648;2023-06-10T01:43:03;7.80;;;5.57;;
25073;SDS011;13066;52.042;5.648;2023-06-10T01:45:31;8.75;;;5.38;;
25073;SDS011;13066;52.042;5.648;2023-06-10T01:47:59;8.77;;;5.30;;
25073;SDS011;13066;52.042;5.648;2023-06-10T01:50:28;11.35;;;5.32;;
25073;SDS011;13066;52.042;5.648;2023-06-10T01:52:57;6.18;;;5.15;;
25073;SDS011;13066;52.042;5.648;2023-06-10T01:55:27;7.68;;;5.30;;
25073;SDS011;13066;52.042;5.648;2023-06-10T01:57:55;11.30;;;5.30;;
25073;SDS011;13066;52.042;5.648;2023-06-10T02:00:23;10.98;;;5.40;;
25073;SDS011;13066;52.042;5.648;2023-06-10T02:02:51;11.93;;;5.53;;
25073;SDS011;13066;52.042;5.648;2023-06-10T02:05:19;12.38;;;5.90;;
25073;SDS011;13066;52.042;5.648;2023-06-10T02:07:48;8.00;;;5.38;;
25073;SDS011;13066;52.042;5.648;2023-06-10T02:10:15;12.00;;;5.57;;
25073;SDS011;13066;52.042;5.648;2023-06-10T02:12:45;7.93;;;5.10;;
25073;SDS011;13066;52.042;5.648;2023-06-10T02:15:13;7.97;;;5.32;;
25073;SDS011;13066;52.042;5.648;2023-06-10T02:17:41;15.18;;;5.07;;
25073;SDS011;13066;52.042;5.648;2023-06-10T02:20:11;10.70;;;5.82;;
25073;SDS011;13066;52.042;5.648;2023-06-10T02:22:40;8.52;;;5.55;;
25073;SDS011;13066;52.042;5.648;2023-06-10T02:25:08;12.13;;;5.55;;
25073;SDS011;13066;52.042;5.648;2023-06-10T02:27:37;9.15;;;5.15;;
25073;SDS011;13066;52.042;5.648;2023-06-10T02:30:07;9.68;;;5.47;;
25073;SDS011;13066;52.042;5.648;2023-06-10T02:32:37;13.27;;;5.47;;
25073;SDS011;13066;52.042;5.648;2023-06-10T02:35:06;8.73;;;5.70;;
25073;SDS011;13066;52.042;5.648;2023-06-10T02:37:34;8.93;;;5.18;;
25073;SDS011;13066;52.042;5.648;2023-06-10T02:40:03;12.60;;;5.35;;
25073;SDS011;13066;52.042;5.648;2023-06-10T02:42:33;11.55;;;5.93;;
25073;SDS011;13066;52.042;5.648;2023-06-10T02:45:01;9.32;;;5.47;;
25073;SDS011;13066;52.042;5.648;2023-06-10T02:47:37;10.13;;;5.63;;
25073;SDS011;13066;52.042;5.648;2023-06-10T02:50:07;10.40;;;5.57;;
25073;SDS011;13066;52.042;5.648;2023-06-10T02:52:44;8.02;;;5.53;;
25073;SDS011;13066;52.042;5.648;2023-06-10T02:55:12;10.77;;;5.68;;
25073;SDS011;13066;52.042;5.648;2023-06-10T03:00:16;8.93;;;5.35;;
25073;SDS011;13066;52.042;5.648;2023-06-10T03:02:48;10.35;;;5.63;;
25073;SDS011;13066;52.042;5.648;2023-06-10T03:05:21;10.52;;;5.55;;
25073;SDS011;13066;52.042;5.648;2023-06-10T03:07:50;8.68;;;5.07;;
25073;SDS011;13066;52.042;5.648;2023-06-10T03:10:19;10.80;;;5.22;;
25073;SDS011;13066;52.042;5.648;2023-06-10T03:12:47;8.98;;;5.40;;
25073;SDS011;13066;52.042;5.648;2023-06-10T03:15:16;6.25;;;5.15;;
25073;SDS011;13066;52.042;5.648;2023-06-10T03:17:44;13.48;;;5.80;;
25073;SDS011;13066;52.042;5.648;2023-06-10T03:20:14;9.70;;;5.53;;
25073;SDS011;13066;52.042;5.648;2023-06-10T03:22:44;11.13;;;5.32;;
25073;SDS011;13066;52.042;5.648;2023-06-10T03:25:12;15.05;;;5.55;;
25073;SDS011;13066;52.042;5.648;2023-06-10T03:27:45;10.40;;;5.20;;
25073;SDS011;13066;52.042;5.648;2023-06-10T03:30:14;11.68;;;5.10;;
25073;SDS011;13066;52.042;5.648;2023-06-10T03:32:43;9.07;;;6.15;;
25073;SDS011;13066;52.042;5.648;2023-06-10T03:35:16;7.82;;;5.30;;
25073;SDS011;13066;52.042;5.648;2023-06-10T03:37:45;14.40;;;5.95;;
25073;SDS011;13066;52.042;5.648;2023-06-10T03:40:13;15.98;;;5.68;;
25073;SDS011;13066;52.042;5.648;2023-06-10T03:42:44;13.95;;;5.25;;
25073;SDS011;13066;52.042;5.648;2023-06-10T03:45:14;8.63;;;5.72;;
25073;SDS011;13066;52.042;5.648;2023-06-10T03:47:44;12.00;;;5.60;;
25073;SDS011;13066;52.042;5.648;2023-06-10T03:50:19;12.13;;;5.95;;
25073;SDS011;13066;52.042;5.648;2023-06-10T03:52:49;10.15;;;5.63;;
25073;SDS011;13066;52.042;5.648;2023-06-10T03:55:21;17.20;;;5.57;;
25073;SDS011;13066;52.042;5.648;2023-06-10T03:57:50;9.98;;;5.63;;
25073;SDS011;13066;52.042;5.648;2023-06-10T04:00:18;9.20;;;5.82;;
25073;SDS011;13066;52.042;5.648;2023-06-10T04:02:48;11.75;;;5.90;;
25073;SDS011;13066;52.042;5.648;2023-06-10T04:05:30;10.05;;;5.25;;
25073;SDS011;13066;52.042;5.648;2023-06-10T04:07:58;8.73;;;5.70;;
25073;SDS011;13066;52.042;5.648;2023-06-10T04:10:28;11.57;;;5.78;;
25073;SDS011;13066;52.042;5.648;2023-06-10T04:12:56;12.07;;;5.70;;
25073;SDS011;13066;52.042;5.648;2023-06-10T04:15:28;17.05;;;5.63;;
25073;SDS011;13066;52.042;5.648;2023-06-10T04:17:56;15.15;;;5.90;;
25073;SDS011;13066;52.042;5.648;2023-06-10T04:20:25;8.88;;;5.25;;
25073;SDS011;13066;52.042;5.648;2023-06-10T04:22:55;13.27;;;6.03;;
25073;SDS011;13066;52.042;5.648;2023-06-10T04:25:23;17.50;;;6.03;;
25073;SDS011;13066;52.042;5.648;2023-06-10T04:27:52;14.00;;;6.10;;
25073;SDS011;13066;52.042;5.648;2023-06-10T04:30:21;10.27;;;5.97;;
25073;SDS011;13066;52.042;5.648;2023-06-10T04:32:49;13.73;;;5.97;;
25073;SDS011;13066;52.042;5.648;2023-06-10T04:35:18;12.98;;;5.93;;
25073;SDS011;13066;52.042;5.648;2023-06-10T04:37:47;12.27;;;5.97;;
25073;SDS011;13066;52.042;5.648;2023-06-10T04:40:18;8.30;;;6.22;;
25073;SDS011;13066;52.042;5.648;2023-06-10T04:42:46;9.10;;;5.63;;
25073;SDS011;13066;52.042;5.648;2023-06-10T04:45:14;12.23;;;5.63;;
25073;SDS011;13066;52.042;5.648;2023-06-10T04:47:43;10.23;;;5.38;;
25073;SDS011;13066;52.042;5.648;2023-06-10T04:50:11;11.43;;;5.47;;
25073;SDS011;13066;52.042;5.648;2023-06-10T04:52:39;12.23;;;5.82;;
25073;SDS011;13066;52.042;5.648;2023-06-10T04:55:08;11.98;;;5.20;;
25073;SDS011;13066;52.042;5.648;2023-06-10T04:57:38;8.93;;;6.00;;
25073;SDS011;13066;52.042;5.648;2023-06-10T05:00:07;11.60;;;5.65;;
25073;SDS011;13066;52.042;5.648;2023-06-10T05:02:36;9.55;;;5.93;;
25073;SDS011;13066;52.042;5.648;2023-06-10T05:05:04;9.80;;;5.85;;
25073;SDS011;13066;52.042;5.648;2023-06-10T05:07:33;11.68;;;6.38;;
25073;SDS011;13066;52.042;5.648;2023-06-10T05:10:01;12.00;;;6.68;;
25073;SDS011;13066;52.042;5.648;2023-06-10T05:12:29;15.70;;;6.20;;
25073;SDS011;13066;52.042;5.648;2023-06-10T05:14:58;12.55;;;5.95;;
25073;SDS011;13066;52.042;5.648;2023-06-10T05:17:26;10.52;;;5.93;;
25073;SDS011;13066;52.042;5.648;2023-06-10T05:19:55;10.07;;;5.75;;
25073;SDS011;13066;52.042;5.648;2023-06-10T05:22:23;9.32;;;5.90;;
25073;SDS011;13066;52.042;5.648;2023-06-10T05:24:51;14.40;;;5.68;;
25073;SDS011;13066;52.042;5.648;2023-06-10T05:27:19;10.55;;;5.90;;
25073;SDS011;13066;52.042;5.648;2023-06-10T05:29:48;10.13;;;6.07;;
25073;SDS011;13066;52.042;5.648;2023-06-10T05:32:19;13.43;;;5.47;;
25073;SDS011;13066;52.042;5.648;2023-06-10T05:34:47;13.68;;;6.18;;
25073;SDS011;13066;52.042;5.648;2023-06-10T05:37:15;15.68;;;5.80;;
25073;SDS011;13066;52.042;5.648;2023-06-10T05:39:43;14.20;;;6.25;;
25073;SDS011;13066;52.042;5.648;2023-06-10T05:42:11;12.60;;;5.90;;
25073;SDS011;13066;52.042;5.648;2023-06-10T05:44:39;11.15;;;5.38;;
25073;SDS011;13066;52.042;5.648;2023-06-10T05:47:08;10.10;;;5.88;;
25073;SDS011;13066;52.042;5.648;2023-06-10T05:49:38;12.13;;;5.30;;
25073;SDS011;13066;52.042;5.648;2023-06-10T05:52:06;14.73;;;5.75;;
25073;SDS011;13066;52.042;5.648;2023-06-10T05:54:34;12.30;;;6.00;;
25073;SDS011;13066;52.042;5.648;2023-06-10T05:57:02;10.02;;;5.97;;
25073;SDS011;13066;52.042;5.648;2023-06-10T05:59:32;10.50;;;6.25;;
25073;SDS011;13066;52.042;5.648;2023-06-10T06:02:00;12.70;;;5.97;;
25073;SDS011;13066;52.042;5.648;2023-06-10T06:04:28;12.43;;;5.80;;
25073;SDS011;13066;52.042;5.648;2023-06-10T06:06:57;11.35;;;5.60;;
25073;SDS011;13066;52.042;5.648;2023-06-10T06:09:25;12.30;;;5.68;;
25073;SDS011;13066;52.042;5.648;2023-06-10T06:11:54;10.32;;;5.45;;
25073;SDS011;13066;52.042;5.648;2023-06-10T06:14:21;12.10;;;5.22;;
25073;SDS011;13066;52.042;5.648;2023-06-10T06:16:50;15.77;;;5.95;;
25073;SDS011;13066;52.042;5.648;2023-06-10T06:19:18;13.38;;;5.70;;
25073;SDS011;13066;52.042;5.648;2023-06-10T06:21:46;10.43;;;5.93;;
25073;SDS011;13066;52.042;5.648;2023-06-10T06:24:16;12.13;;;6.50;;
25073;SDS011;13066;52.042;5.648;2023-06-10T06:26:44;11.68;;;5.38;;
25073;SDS011;13066;52.042;5.648;2023-06-10T06:29:12;11.32;;;5.45;;
25073;SDS011;13066;52.042;5.648;2023-06-10T06:31:40;12.68;;;5.30;;
25073;SDS011;13066;52.042;5.648;2023-06-10T06:34:08;8.30;;;5.80;;
25073;SDS011;13066;52.042;5.648;2023-06-10T06:36:39;14.13;;;5.38;;
25073;SDS011;13066;52.042;5.648;2023-06-10T06:39:07;10.38;;;5.45;;
25073;SDS011;13066;52.042;5.648;2023-06-10T06:41:37;8.57;;;4.68;;
25073;SDS011;13066;52.042;5.648;2023-06-10T06:44:05;9.10;;;5.63;;
25073;SDS011;13066;52.042;5.648;2023-06-10T06:46:37;9.90;;;4.97;;
25073;SDS011;13066;52.042;5.648;2023-06-10T06:49:05;13.48;;;5.20;;
25073;SDS011;13066;52.042;5.648;2023-06-10T06:51:33;11.77;;;4.90;;
25073;SDS011;13066;52.042;5.648;2023-06-10T06:54:02;7.35;;;5.13;;
25073;SDS011;13066;52.042;5.648;2023-06-10T06:56:32;7.78;;;4.95;;
25073;SDS011;13066;52.042;5.648;2023-06-10T06:59:01;9.43;;;5.00;;
25073;SDS011;13066;52.042;5.648;2023-06-10T07:01:29;11.23;;;5.55;;
25073;SDS011;13066;52.042;5.648;2023-06-10T07:03:57;9.55;;;4.85;;
25073;SDS011;13066;52.042;5.648;2023-06-10T07:06:25;9.40;;;5.32;;
25073;SDS011;13066;52.042;5.648;2023-06-10T07:08:53;11.40;;;5.20;;
25073;SDS011;13066;52.042;5.648;2023-06-10T07:11:21;10.57;;;5.22;;
25073;SDS011;13066;52.042;5.648;2023-06-10T07:13:49;10.50;;;5.55;;
25073;SDS011;13066;52.042;5.648;2023-06-10T07:16:19;10.95;;;5.25;;
25073;SDS011;13066;52.042;5.648;2023-06-10T07:18:47;8.05;;;5.13;;
25073;SDS011;13066;52.042;5.648;2023-06-10T07:21:15;8.80;;;5.18;;
25073;SDS011;13066;52.042;5.648;2023-06-10T07:23:43;17.02;;;5.25;;
25073;SDS011;13066;52.042;5.648;2023-06-10T07:26:12;17.38;;;5.60;;
25073;SDS011;13066;52.042;5.648;2023-06-10T07:28:40;7.10;;;4.60;;
25073;SDS011;13066;52.042;5.648;2023-06-10T07:31:08;11.07;;;5.38;;
25073;SDS011;13066;52.042;5.648;2023-06-10T07:33:37;15.48;;;5.72;;
25073;SDS011;13066;52.042;5.648;2023-06-10T07:36:06;8.52;;;4.78;;
25073;SDS011;13066;52.042;5.648;2023-06-10T07:38:34;7.57;;;4.65;;
25073;SDS011;13066;52.042;5.648;2023-06-10T07:41:02;7.82;;;5.25;;
25073;SDS011;13066;52.042;5.648;2023-06-10T07:43:31;8.23;;;4.55;;
25073;SDS011;13066;52.042;5.648;2023-06-10T07:45:59;8.82;;;4.95;;
25073;SDS011;13066;52.042;5.648;2023-06-10T07:48:27;18.35;;;5.65;;
25073;SDS011;13066;52.042;5.648;2023-06-10T07:50:56;14.45;;;4.93;;
25073;SDS011;13066;52.042;5.648;2023-06-10T07:53:25;10.10;;;4.93;;
25073;SDS011;13066;52.042;5.648;2023-06-10T07:55:53;14.52;;;5.07;;
25073;SDS011;13066;52.042;5.648;2023-06-10T07:58:21;7.90;;;4.65;;
25073;SDS011;13066;52.042;5.648;2023-06-10T08:00:49;12.30;;;5.40;;
25073;SDS011;13066;52.042;5.648;2023-06-10T08:03:18;10.70;;;4.85;;
25073;SDS011;13066;52.042;5.648;2023-06-10T08:05:47;9.43;;;4.70;;
25073;SDS011;13066;52.042;5.648;2023-06-10T08:08:17;9.77;;;5.05;;
25073;SDS011;13066;52.042;5.648;2023-06-10T08:10:45;6.40;;;4.25;;
25073;SDS011;13066;52.042;5.648;2023-06-10T08:13:13;9.65;;;4.95;;
25073;SDS011;13066;52.042;5.648;2023-06-10T08:15:42;7.32;;;4.80;;
25073;SDS011;13066;52.042;5.648;2023-06-10T08:18:09;8.45;;;4.65;;
25073;SDS011;13066;52.042;5.648;2023-06-10T08:20:37;7.78;;;4.78;;
25073;SDS011;13066;52.042;5.648;2023-06-10T08:23:05;18.10;;;4.60;;
25073;SDS011;13066;52.042;5.648;2023-06-10T08:25:35;9.57;;;4.60;;
25073;SDS011;13066;52.042;5.648;2023-06-10T08:28:03;9.05;;;4.88;;
25073;SDS011;13066;52.042;5.648;2023-06-10T08:30:31;7.45;;;4.30;;
25073;SDS011;13066;52.042;5.648;2023-06-10T08:32:59;6.65;;;4.60;;
25073;SDS011;13066;52.042;5.648;2023-06-10T08:35:27;7.57;;;5.18;;
25073;SDS011;13066;52.042;5.648;2023-06-10T08:37:55;7.95;;;4.03;;
25073;SDS011;13066;52.042;5.648;2023-06-10T08:40:24;10.65;;;4.22;;
25073;SDS011;13066;52.042;5.648;2023-06-10T08:42:58;9.10;;;5.35;;
25073;SDS011;13066;52.042;5.648;2023-06-10T08:45:29;8.55;;;4.78;;
25073;SDS011;13066;52.042;5.648;2023-06-10T08:47:58;9.45;;;4.88;;
25073;SDS011;13066;52.042;5.648;2023-06-10T08:50:28;13.43;;;4.80;;
25073;SDS011;13066;52.042;5.648;2023-06-10T08:52:57;9.70;;;4.25;;
25073;SDS011;13066;52.042;5.648;2023-06-10T08:55:27;9.35;;;5.03;;
25073;SDS011;13066;52.042;5.648;2023-06-10T08:58:00;8.25;;;4.97;;
25073;SDS011;13066;52.042;5.648;2023-06-10T09:00:29;8.27;;;4.20;;
25073;SDS011;13066;52.042;5.648;2023-06-10T09:02:59;11.43;;;4.45;;
25073;SDS011;13066;52.042;5.648;2023-06-10T09:05:33;12.18;;;5.20;;
25073;SDS011;13066;52.042;5.648;2023-06-10T09:08:01;8.68;;;4.05;;
25073;SDS011;13066;52.042;5.648;2023-06-10T09:10:29;7.05;;;4.22;;
25073;SDS011;13066;52.042;5.648;2023-06-10T09:12:58;8.80;;;4.15;;
25073;SDS011;13066;52.042;5.648;2023-06-10T09:15:27;5.88;;;4.10;;
25073;SDS011;13066;52.042;5.648;2023-06-10T09:17:55;12.13;;;4.30;;
25073;SDS011;13066;52.042;5.648;2023-06-10T09:20:23;9.18;;;4.40;;
25073;SDS011;13066;52.042;5.648;2023-06-10T09:22:51;9.18;;;4.50;;
25073;SDS011;13066;52.042;5.648;2023-06-10T09:25:19;5.97;;;3.90;;
25073;SDS011;13066;52.042;5.648;2023-06-10T09:28:04;6.88;;;4.25;;
25073;SDS011;13066;52.042;5.648;2023-06-10T09:30:33;8.48;;;4.63;;
25073;SDS011;13066;52.042;5.648;2023-06-10T09:33:03;7.63;;;4.25;;
25073;SDS011;13066;52.042;5.648;2023-06-10T09:35:37;7.75;;;4.35;;
25073;SDS011;13066;52.042;5.648;2023-06-10T09:38:14;10.98;;;4.10;;
25073;SDS011;13066;52.042;5.648;2023-06-10T09:40:49;13.52;;;4.38;;
25073;SDS011;13066;52.042;5.648;2023-06-10T09:43:20;8.07;;;4.57;;
25073;SDS011;13066;52.042;5.648;2023-06-10T09:45:48;113.53;;;7.50;;
25073;SDS011;13066;52.042;5.648;2023-06-10T09:48:20;14.40;;;4.15;;
25073;SDS011;13066;52.042;5.648;2023-06-10T09:50:48;7.05;;;4.15;;
25073;SDS011;13066;52.042;5.648;2023-06-10T09:53:17;9.10;;;4.10;;
25073;SDS011;13066;52.042;5.648;2023-06-10T09:55:45;8.40;;;4.20;;
25073;SDS011;13066;52.042;5.648;2023-06-10T09:58:14;9.52;;;4.82;;
25073;SDS011;13066;52.042;5.648;2023-06-10T10:00:43;7.68;;;4.03;;
25073;SDS011;13066;52.042;5.648;2023-06-10T10:03:11;7.72;;;4.57;;
25073;SDS011;13066;52.042;5.648;2023-06-10T10:05:51;9.07;;;3.92;;
25073;SDS011;13066;52.042;5.648;2023-06-10T10:08:27;5.35;;;3.67;;
25073;SDS011;13066;52.042;5.648;2023-06-10T10:10:56;8.15;;;3.80;;
25073;SDS011;13066;52.042;5.648;2023-06-10T10:13:25;16.05;;;4.72;;
25073;SDS011;13066;52.042;5.648;2023-06-10T10:15:56;18.77;;;4.03;;
25073;SDS011;13066;52.042;5.648;2023-06-10T10:18:24;5.70;;;3.80;;
25073;SDS011;13066;52.042;5.648;2023-06-10T10:20:55;9.15;;;3.80;;
25073;SDS011;13066;52.042;5.648;2023-06-10T10:23:26;11.77;;;3.90;;
25073;SDS011;13066;52.042;5.648;2023-06-10T10:25:57;7.95;;;4.20;;
25073;SDS011;13066;52.042;5.648;2023-06-10T10:28:29;9.57;;;4.38;;
25073;SDS011;13066;52.042;5.648;2023-06-10T10:31:07;8.75;;;4.07;;
25073;SDS011;13066;52.042;5.648;2023-06-10T10:33:40;7.95;;;4.00;;
25073;SDS011;13066;52.042;5.648;2023-06-10T10:36:13;6.40;;;4.10;;
25073;SDS011;13066;52.042;5.648;2023-06-10T10:38:41;9.27;;;4.72;;
25073;SDS011;13066;52.042;5.648;2023-06-10T10:41:10;5.72;;;4.13;;
25073;SDS011;13066;52.042;5.648;2023-06-10T10:43:39;9.90;;;4.55;;
25073;SDS011;13066;52.042;5.648;2023-06-10T10:46:11;12.85;;;4.35;;
25073;SDS011;13066;52.042;5.648;2023-06-10T10:48:40;9.43;;;4.47;;
25073;SDS011;13066;52.042;5.648;2023-06-10T10:51:08;7.43;;;5.03;;
25073;SDS011;13066;52.042;5.648;2023-06-10T10:53:36;11.10;;;7.95;;
25073;SDS011;13066;52.042;5.648;2023-06-10T10:56:06;9.00;;;8.13;;
25073;SDS011;13066;52.042;5.648;2023-06-10T10:58:38;18.83;;;8.13;;
25073;SDS011;13066;52.042;5.648;2023-06-10T11:01:11;17.63;;;8.50;;
25073;SDS011;13066;52.042;5.648;2023-06-10T11:03:42;46.53;;;5.40;;
25073;SDS011;13066;52.042;5.648;2023-06-10T11:08:45;9.25;;;4.53;;
25073;SDS011;13066;52.042;5.648;2023-06-10T11:11:18;7.45;;;3.88;;
25073;SDS011;13066;52.042;5.648;2023-06-10T11:13:57;5.53;;;3.97;;
25073;SDS011;13066;52.042;5.648;2023-06-10T11:16:28;8.73;;;4.00;;
25073;SDS011;13066;52.042;5.648;2023-06-10T11:18:56;9.15;;;4.28;;
25073;SDS011;13066;52.042;5.648;2023-06-10T11:21:25;8.18;;;3.90;;
25073;SDS011;13066;52.042;5.648;2023-06-10T11:23:57;13.35;;;4.40;;
25073;SDS011;13066;52.042;5.648;2023-06-10T11:26:31;8.23;;;4.00;;
25073;SDS011;13066;52.042;5.648;2023-06-10T11:29:04;11.20;;;4.28;;
25073;SDS011;13066;52.042;5.648;2023-06-10T11:31:43;10.07;;;4.18;;
25073;SDS011;13066;52.042;5.648;2023-06-10T11:34:13;7.55;;;4.03;;
25073;SDS011;13066;52.042;5.648;2023-06-10T11:36:41;8.50;;;4.78;;
25073;SDS011;13066;52.042;5.648;2023-06-10T11:39:12;7.03;;;3.90;;
25073;SDS011;13066;52.042;5.648;2023-06-10T11:41:40;13.55;;;5.60;;
25073;SDS011;13066;52.042;5.648;2023-06-10T11:44:09;21.77;;;10.18;;
25073;SDS011;13066;52.042;5.648;2023-06-10T11:46:41;6.60;;;3.70;;
25073;SDS011;13066;52.042;5.648;2023-06-10T11:49:11;22.17;;;7.95;;
25073;SDS011;13066;52.042;5.648;2023-06-10T11:51:40;5.93;;;4.32;;
25073;SDS011;13066;52.042;5.648;2023-06-10T11:54:16;10.43;;;4.05;;
25073;SDS011;13066;52.042;5.648;2023-06-10T11:56:45;6.72;;;4.10;;
25073;SDS011;13066;52.042;5.648;2023-06-10T11:59:14;5.75;;;3.92;;
25073;SDS011;13066;52.042;5.648;2023-06-10T12:01:43;4.75;;;3.78;;
25073;SDS011;13066;52.042;5.648;2023-06-10T12:04:13;7.57;;;3.80;;
25073;SDS011;13066;52.042;5.648;2023-06-10T12:06:45;6.75;;;3.88;;
25073;SDS011;13066;52.042;5.648;2023-06-10T12:09:15;7.68;;;4.13;;
25073;SDS011;13066;52.042;5.648;2023-06-10T12:11:53;11.85;;;4.47;;
25073;SDS011;13066;52.042;5.648;2023-06-10T12:17:20;5.05;;;3.67;;
25073;SDS011;13066;52.042;5.648;2023-06-10T12:19:51;8.70;;;4.05;;
25073;SDS011;13066;52.042;5.648;2023-06-10T12:22:19;6.03;;;3.92;;
25073;SDS011;13066;52.042;5.648;2023-06-10T12:24:59;6.40;;;4.00;;
25073;SDS011;13066;52.042;5.648;2023-06-10T12:27:30;7.45;;;4.10;;
25073;SDS011;13066;52.042;5.648;2023-06-10T12:29:59;7.55;;;4.13;;
25073;SDS011;13066;52.042;5.648;2023-06-10T12:32:36;6.28;;;3.90;;
25073;SDS011;13066;52.042;5.648;2023-06-10T12:35:08;6.30;;;4.05;;
25073;SDS011;13066;52.042;5.648;2023-06-10T12:37:37;6.60;;;3.42;;
25073;SDS011;13066;52.042;5.648;2023-06-10T12:40:09;6.97;;;4.20;;
25073;SDS011;13066;52.042;5.648;2023-06-10T12:42:38;6.03;;;4.50;;
25073;SDS011;13066;52.042;5.648;2023-06-10T12:45:06;5.80;;;3.90;;
25073;SDS011;13066;52.042;5.648;2023-06-10T12:47:37;6.50;;;4.03;;
25073;SDS011;13066;52.042;5.648;2023-06-10T12:50:08;5.60;;;3.88;;
25073;SDS011;13066;52.042;5.648;2023-06-10T12:52:39;8.85;;;5.85;;
25073;SDS011;13066;52.042;5.648;2023-06-10T12:55:08;11.20;;;5.90;;
25073;SDS011;13066;52.042;5.648;2023-06-10T12:57:37;26.65;;;5.20;;
25073;SDS011;13066;52.042;5.648;2023-06-10T13:00:06;6.28;;;4.10;;
25073;SDS011;13066;52.042;5.648;2023-06-10T13:02:36;11.50;;;3.88;;
25073;SDS011;13066;52.042;5.648;2023-06-10T13:05:04;13.52;;;3.88;;
25073;SDS011;13066;52.042;5.648;2023-06-10T13:07:35;5.40;;;3.72;;
25073;SDS011;13066;52.042;5.648;2023-06-10T13:10:03;5.45;;;4.20;;
25073;SDS011;13066;52.042;5.648;2023-06-10T13:12:31;5.25;;;4.18;;
25073;SDS011;13066;52.042;5.648;2023-06-10T13:15:15;6.93;;;3.90;;
25073;SDS011;13066;52.042;5.648;2023-06-10T13:17:43;7.18;;;4.10;;
25073;SDS011;13066;52.042;5.648;2023-06-10T13:20:12;4.68;;;3.55;;
25073;SDS011;13066;52.042;5.648;2023-06-10T13:22:41;11.57;;;4.65;;
25073;SDS011;13066;52.042;5.648;2023-06-10T13:25:10;15.13;;;4.47;;
25073;SDS011;13066;52.042;5.648;2023-06-10T13:27:39;6.30;;;3.35;;
25073;SDS011;13066;52.042;5.648;2023-06-10T13:30:09;5.30;;;3.92;;
25073;SDS011;13066;52.042;5.648;2023-06-10T13:32:38;10.70;;;4.00;;
25073;SDS011;13066;52.042;5.648;2023-06-10T13:35:06;20.70;;;4.20;;
25073;SDS011;13066;52.042;5.648;2023-06-10T13:37:35;21.58;;;4.35;;
25073;SDS011;13066;52.042;5.648;2023-06-10T13:40:05;7.03;;;3.65;;
25073;SDS011;13066;52.042;5.648;2023-06-10T13:42:36;6.05;;;3.90;;
25073;SDS011;13066;52.042;5.648;2023-06-10T13:45:05;11.05;;;3.90;;
25073;SDS011;13066;52.042;5.648;2023-06-10T13:47:34;4.15;;;3.17;;
25073;SDS011;13066;52.042;5.648;2023-06-10T13:50:02;6.63;;;3.50;;
25073;SDS011;13066;52.042;5.648;2023-06-10T13:52:31;6.13;;;3.85;;
25073;SDS011;13066;52.042;5.648;2023-06-10T13:54:59;7.82;;;3.60;;
25073;SDS011;13066;52.042;5.648;2023-06-10T13:57:28;6.93;;;3.80;;
25073;SDS011;13066;52.042;5.648;2023-06-10T13:59:56;5.72;;;3.55;;
25073;SDS011;13066;52.042;5.648;2023-06-10T14:02:24;5.85;;;3.40;;
25073;SDS011;13066;52.042;5.648;2023-06-10T14:04:52;12.77;;;3.90;;
25073;SDS011;13066;52.042;5.648;2023-06-10T14:07:20;8.30;;;4.07;;
25073;SDS011;13066;52.042;5.648;2023-06-10T14:09:48;9.73;;;3.88;;
25073;SDS011;13066;52.042;5.648;2023-06-10T14:12:17;5.68;;;3.42;;
25073;SDS011;13066;52.042;5.648;2023-06-10T14:14:46;5.90;;;3.85;;
25073;SDS011;13066;52.042;5.648;2023-06-10T14:17:14;8.32;;;3.90;;
25073;SDS011;13066;52.042;5.648;2023-06-10T14:19:42;10.93;;;4.15;;
25073;SDS011;13066;52.042;5.648;2023-06-10T14:22:10;10.27;;;3.53;;
25073;SDS011;13066;52.042;5.648;2023-06-10T14:24:38;5.97;;;3.30;;
25073;SDS011;13066;52.042;5.648;2023-06-10T14:27:06;6.30;;;3.97;;
25073;SDS011;13066;52.042;5.648;2023-06-10T14:29:34;6.65;;;3.70;;
25073;SDS011;13066;52.042;5.648;2023-06-10T14:32:04;8.57;;;3.90;;
25073;SDS011;13066;52.042;5.648;2023-06-10T14:34:35;7.13;;;3.50;;
25073;SDS011;13066;52.042;5.648;2023-06-10T14:37:03;6.82;;;3.70;;
25073;SDS011;13066;52.042;5.648;2023-06-10T14:39:34;6.80;;;3.47;;
25073;SDS011;13066;52.042;5.648;2023-06-10T14:42:02;5.60;;;3.60;;
25073;SDS011;13066;52.042;5.648;2023-06-10T14:44:32;8.10;;;3.72;;
25073;SDS011;13066;52.042;5.648;2023-06-10T14:47:00;6.47;;;3.53;;
25073;SDS011;13066;52.042;5.648;2023-06-10T14:49:29;4.68;;;3.55;;
25073;SDS011;13066;52.042;5.648;2023-06-10T14:51:57;6.13;;;3.30;;
25073;SDS011;13066;52.042;5.648;2023-06-10T14:54:25;5.53;;;3.90;;
25073;SDS011;13066;52.042;5.648;2023-06-10T14:56:54;8.70;;;3.58;;
25073;SDS011;13066;52.042;5.648;2023-06-10T14:59:22;4.50;;;3.40;;
25073;SDS011;13066;52.042;5.648;2023-06-10T15:01:50;7.03;;;3.58;;
25073;SDS011;13066;52.042;5.648;2023-06-10T15:04:18;4.13;;;3.08;;